Time;durP1;ratioP1;P1;durP2;ratioP2;P2;SDS_P1;SDS_P2;PMS_P1;PMS_P2;Temp;Humidity;BMP_temperature;BMP_pressure;BME280_temperature;BME280_humidity;BME280_pressure;Samples;Min_cycle;Max_cycle;Signal;HPM_P1;HPM_P2
2023/07/27 00:01:04;;;;;;;9.00;4.00;;;11.10;99.90;;;;;;5052008;28;20037;-67
2023/07/27 00:03:29;;;;;;;9.75;4.28;;;11.10;99.90;;;;;;5049429;28;20033;-66
2023/07/27 00:05:55;;;;;;;7.25;4.32;;;11.10;99.90;;;;;;5045426;28;20040;-66
2023/07/27 00:08:20;;;;;;;8.07;4.32;;;11.00;99.90;;;;;;5049198;28;20063;-66
2023/07/27 00:10:46;;;;;;;8.90;4.78;;;11.00;99.90;;;;;;5050560;28;20036;-66
2023/07/27 00:13:11;;;;;;;15.27;4.70;;;11.00;99.90;;;;;;5067709;28;20132;-66
2023/07/27 00:15:37;;;;;;;12.90;5.80;;;11.10;99.90;;;;;;5063113;28;20037;-66
2023/07/27 00:18:02;;;;;;;10.38;5.45;;;11.10;99.90;;;;;;5069795;28;20033;-66
2023/07/27 00:20:28;;;;;;;11.82;5.43;;;11.10;99.90;;;;;;5041578;28;20114;-66
2023/07/27 00:22:54;;;;;;;15.07;5.50;;;11.20;99.90;;;;;;5039761;28;20055;-66
2023/07/27 00:25:19;;;;;;;11.27;5.60;;;11.20;99.90;;;;;;5061958;28;20036;-67
2023/07/27 00:27:45;;;;;;;16.95;6.10;;;11.30;99.90;;;;;;5048873;28;20105;-66
2023/07/27 00:30:12;;;;;;;11.15;5.65;;;11.30;99.90;;;;;;5051667;28;20337;-66
2023/07/27 00:32:37;;;;;;;13.63;6.13;;;11.30;99.90;;;;;;5046485;28;20837;-67
2023/07/27 00:35:04;;;;;;;12.88;5.90;;;11.40;99.90;;;;;;5031577;28;20037;-66
2023/07/27 00:37:29;;;;;;;13.43;6.28;;;11.40;99.90;;;;;;5047824;28;20033;-66
2023/07/27 00:39:55;;;;;;;13.65;6.65;;;11.50;99.90;;;;;;5047952;28;20139;-66
2023/07/27 00:42:20;;;;;;;11.77;6.22;;;11.60;99.90;;;;;;5047783;28;20028;-66
2023/07/27 00:44:46;;;;;;;13.98;6.35;;;11.70;99.90;;;;;;5046933;28;20102;-66
2023/07/27 00:47:11;;;;;;;10.77;6.15;;;11.70;99.90;;;;;;5047836;28;20431;-66
2023/07/27 00:49:37;;;;;;;12.60;6.25;;;11.80;99.90;;;;;;5049490;28;20687;-66
2023/07/27 00:52:07;;;;;;;10.82;5.70;;;11.90;99.90;;;;;;5044404;28;20048;-67
2023/07/27 00:54:33;;;;;;;13.52;6.80;;;11.90;99.90;;;;;;5068894;28;20048;-67
2023/07/27 00:56:59;;;;;;;11.98;5.88;;;12.00;99.90;;;;;;5063394;28;20036;-66
2023/07/27 00:59:25;;;;;;;13.40;6.57;;;12.00;99.90;;;;;;5046773;28;20526;-67
2023/07/27 01:01:51;;;;;;;12.20;6.65;;;12.10;99.90;;;;;;5026795;28;20101;-67
2023/07/27 01:04:17;;;;;;;12.68;6.28;;;12.10;99.90;;;;;;5045733;28;20507;-66
2023/07/27 01:06:43;;;;;;;16.65;6.32;;;12.20;99.90;;;;;;5044321;28;20688;-66
2023/07/27 01:09:08;;;;;;;14.15;6.70;;;12.20;99.90;;;;;;5048250;28;20101;-67
2023/07/27 01:11:47;;;;;;;10.73;5.78;;;12.30;99.90;;;;;;5066952;28;20372;-68
2023/07/27 01:14:35;;;;;;;11.75;5.57;;;12.30;99.90;;;;;;5046027;28;20064;-67
2023/07/27 01:17:05;;;;;;;11.57;6.43;;;12.40;99.90;;;;;;5061431;28;20110;-67
2023/07/27 01:20:06;;;;;;;13.25;6.45;;;12.40;99.90;;;;;;5037393;28;20064;-67
2023/07/27 01:22:31;;;;;;;11.93;5.70;;;12.50;99.90;;;;;;5044343;28;20383;-67
2023/07/27 01:25:12;;;;;;;12.85;5.97;;;12.50;99.90;;;;;;5030000;28;20052;-67
2023/07/27 01:28:08;;;;;;;13.70;6.00;;;12.60;99.90;;;;;;5066872;28;20349;-67
2023/07/27 01:30:54;;;;;;;10.32;5.35;;;12.60;99.90;;;;;;5065676;28;20542;-66
2023/07/27 01:33:43;;;;;;;12.57;5.50;;;12.70;99.90;;;;;;5030949;28;20052;-66
2023/07/27 01:36:17;;;;;;;9.77;5.10;;;12.70;99.90;;;;;;5045073;28;20427;-67
2023/07/27 01:38:45;;;;;;;8.52;5.10;;;12.70;99.90;;;;;;5017947;28;20105;-66
2023/07/27 01:41:11;;;;;;;10.63;5.43;;;12.80;99.90;;;;;;5048522;28;20066;-66
2023/07/27 01:43:39;;;;;;;12.77;5.00;;;12.80;99.90;;;;;;5030180;28;20114;-67
2023/07/27 01:46:05;;;;;;;11.27;5.43;;;12.80;99.90;;;;;;5065304;28;20150;-67
2023/07/27 01:48:33;;;;;;;10.35;5.15;;;12.80;99.90;;;;;;5064364;28;20456;-66
2023/07/27 01:51:00;;;;;;;10.80;4.70;;;12.80;99.90;;;;;;5038747;28;20106;-66
2023/07/27 01:53:28;;;;;;;12.15;5.53;;;12.90;99.90;;;;;;5057301;28;20040;-70
2023/07/27 01:55:55;;;;;;;6.95;4.95;;;12.90;99.90;;;;;;5064015;28;20124;-67
2023/07/27 01:58:21;;;;;;;10.43;5.30;;;12.90;99.90;;;;;;5066727;28;20040;-66
2023/07/27 02:00:49;;;;;;;9.52;4.53;;;12.90;99.90;;;;;;5048853;28;20032;-66
2023/07/27 02:03:15;;;;;;;7.07;5.00;;;12.90;99.90;;;;;;5030969;28;20044;-67
2023/07/27 02:05:41;;;;;;;9.82;5.30;;;12.90;99.90;;;;;;5044714;28;20128;-67
2023/07/27 02:08:07;;;;;;;8.77;4.13;;;12.90;99.90;;;;;;5045856;28;20135;-66
2023/07/27 02:10:34;;;;;;;6.97;4.57;;;12.90;99.90;;;;;;5047950;28;20215;-67
2023/07/27 02:13:12;;;;;;;12.32;4.78;;;12.90;99.90;;;;;;5050309;28;20112;-66
2023/07/27 02:15:46;;;;;;;9.13;5.05;;;12.90;99.90;;;;;;5046722;28;20101;-67
2023/07/27 02:18:18;;;;;;;8.82;4.55;;;12.80;99.90;;;;;;5062325;28;20131;-66
2023/07/27 02:20:44;;;;;;;13.02;5.13;;;12.80;99.90;;;;;;5055471;28;20033;-67
2023/07/27 02:23:11;;;;;;;7.18;4.20;;;12.80;99.90;;;;;;5041939;28;20142;-67
2023/07/27 02:25:36;;;;;;;9.50;5.00;;;12.80;99.90;;;;;;5048505;28;20703;-67
2023/07/27 02:28:02;;;;;;;8.93;4.90;;;12.80;99.90;;;;;;5047693;28;20123;-66
2023/07/27 02:30:28;;;;;;;10.73;4.95;;;12.80;99.90;;;;;;5043497;28;20040;-66
2023/07/27 02:32:54;;;;;;;8.40;5.25;;;12.80;99.90;;;;;;5031684;28;20071;-67
2023/07/27 02:35:20;;;;;;;8.13;4.68;;;12.90;99.90;;;;;;5062164;28;20551;-67
2023/07/27 02:37:45;;;;;;;9.75;5.00;;;12.80;99.90;;;;;;5045283;28;20036;-67
2023/07/27 02:40:11;;;;;;;9.90;5.07;;;12.80;99.90;;;;;;5028163;28;20313;-67
2023/07/27 02:42:36;;;;;;;7.95;4.88;;;12.80;99.90;;;;;;5060656;28;20470;-66
2023/07/27 02:45:02;;;;;;;9.05;4.68;;;12.80;99.90;;;;;;5063671;28;20480;-67
2023/07/27 02:47:28;;;;;;;9.90;5.03;;;12.80;99.90;;;;;;5045581;28;20044;-67
2023/07/27 02:49:53;;;;;;;8.68;4.90;;;12.80;99.90;;;;;;5061601;28;20043;-67
2023/07/27 02:52:19;;;;;;;9.82;4.78;;;12.80;99.90;;;;;;5045546;28;20066;-66
2023/07/27 02:54:44;;;;;;;8.57;4.85;;;12.80;99.90;;;;;;5057338;28;20045;-66
2023/07/27 02:57:10;;;;;;;9.27;4.68;;;12.90;99.90;;;;;;5045180;28;20034;-67
2023/07/27 02:59:36;;;;;;;9.07;4.30;;;12.90;99.90;;;;;;5044202;28;20083;-67
2023/07/27 03:02:01;;;;;;;9.15;4.60;;;12.90;99.90;;;;;;5050948;28;20036;-67
2023/07/27 03:04:27;;;;;;;10.63;4.65;;;12.90;99.90;;;;;;5031617;28;20129;-67
2023/07/27 03:06:52;;;;;;;7.95;4.63;;;12.90;99.90;;;;;;5048890;28;20060;-67
2023/07/27 03:09:18;;;;;;;7.55;4.47;;;12.90;99.90;;;;;;5039144;28;20036;-67
2023/07/27 03:11:43;;;;;;;10.85;5.07;;;12.90;99.90;;;;;;5045896;28;20047;-66
2023/07/27 03:14:09;;;;;;;9.05;4.82;;;12.90;99.90;;;;;;5045982;28;20159;-66
2023/07/27 03:16:35;;;;;;;7.68;4.50;;;12.80;99.90;;;;;;5066000;28;20037;-67
2023/07/27 03:19:00;;;;;;;8.68;5.10;;;12.90;99.90;;;;;;5047401;28;20039;-66
2023/07/27 03:21:26;;;;;;;9.48;5.00;;;12.90;99.90;;;;;;5049695;28;20043;-67
2023/07/27 03:23:52;;;;;;;10.27;5.85;;;12.90;99.90;;;;;;5028010;28;20088;-66
2023/07/27 03:26:18;;;;;;;10.02;5.30;;;13.00;99.90;;;;;;5050490;28;20068;-67
2023/07/27 03:28:43;;;;;;;10.48;5.18;;;13.10;99.90;;;;;;5047378;28;20032;-68
2023/07/27 03:31:16;;;;;;;8.93;5.13;;;13.10;99.90;;;;;;5065958;28;20044;-66
2023/07/27 03:33:41;;;;;;;11.05;5.53;;;13.20;99.90;;;;;;5067704;28;20412;-67
2023/07/27 03:36:07;;;;;;;13.20;5.63;;;13.20;99.90;;;;;;5048177;28;20043;-67
2023/07/27 03:38:32;;;;;;;12.13;5.20;;;13.10;99.90;;;;;;5046410;28;20037;-67
2023/07/27 03:40:58;;;;;;;12.80;5.88;;;13.10;99.90;;;;;;5046367;28;20095;-66
2023/07/27 03:43:24;;;;;;;12.30;5.63;;;13.10;99.90;;;;;;5044465;28;20165;-66
2023/07/27 03:45:52;;;;;;;11.02;5.43;;;13.00;99.90;;;;;;5049845;28;20048;-66
2023/07/27 03:48:18;;;;;;;13.25;6.13;;;13.00;99.90;;;;;;5048816;28;20128;-66
2023/07/27 03:50:43;;;;;;;11.38;5.50;;;12.90;99.90;;;;;;5052025;28;20049;-66
2023/07/27 03:53:09;;;;;;;11.88;6.45;;;12.80;99.90;;;;;;5046417;28;20122;-65
2023/07/27 03:55:34;;;;;;;12.95;6.43;;;12.80;99.90;;;;;;5041389;28;20045;-68
2023/07/27 03:58:00;;;;;;;11.60;6.80;;;12.70;99.90;;;;;;5067167;28;20487;-68
2023/07/27 04:00:26;;;;;;;12.68;6.40;;;12.60;99.90;;;;;;5047959;28;20064;-71
2023/07/27 04:02:51;;;;;;;11.15;6.32;;;12.60;99.90;;;;;;5050527;28;20483;-67
2023/07/27 04:05:17;;;;;;;12.98;6.97;;;12.60;99.90;;;;;;5049152;28;20377;-66
2023/07/27 04:07:42;;;;;;;10.95;6.70;;;12.60;99.90;;;;;;5069490;28;20468;-67
2023/07/27 04:10:08;;;;;;;14.10;6.68;;;12.50;99.90;;;;;;5046441;28;20048;-66
2023/07/27 04:12:34;;;;;;;13.13;6.20;;;12.60;99.90;;;;;;5067722;28;20052;-67
2023/07/27 04:14:59;;;;;;;12.80;6.90;;;12.60;99.90;;;;;;5050594;28;20033;-67
2023/07/27 04:17:25;;;;;;;13.68;6.55;;;12.60;99.90;;;;;;5066760;28;20484;-68
2023/07/27 04:19:51;;;;;;;13.55;7.22;;;12.60;99.90;;;;;;5045791;28;20487;-67
2023/07/27 04:22:16;;;;;;;15.68;7.80;;;12.60;99.90;;;;;;5066797;28;20028;-64
2023/07/27 04:24:44;;;;;;;14.88;7.18;;;12.60;99.90;;;;;;5047841;28;20123;-68
2023/07/27 04:27:11;;;;;;;14.13;7.55;;;12.60;99.90;;;;;;5048932;28;20356;-67
2023/07/27 04:29:37;;;;;;;15.65;7.95;;;12.60;99.90;;;;;;5046781;28;20159;-66
2023/07/27 04:32:02;;;;;;;12.70;7.55;;;12.60;99.90;;;;;;5051870;28;20120;-67
2023/07/27 04:34:28;;;;;;;14.85;7.43;;;12.60;99.90;;;;;;5032161;28;20052;-68
2023/07/27 04:36:53;;;;;;;15.43;7.65;;;12.60;99.90;;;;;;5035122;28;20063;-67
2023/07/27 04:39:19;;;;;;;14.88;7.60;;;12.60;99.90;;;;;;5042671;28;20453;-67
2023/07/27 04:41:45;;;;;;;13.55;7.35;;;12.60;99.90;;;;;;5050918;28;20795;-68
2023/07/27 04:44:10;;;;;;;17.85;7.70;;;12.60;99.90;;;;;;5048793;28;20048;-67
2023/07/27 04:46:36;;;;;;;15.23;8.10;;;12.60;99.90;;;;;;5047116;28;20076;-66
2023/07/27 04:49:01;;;;;;;13.73;6.78;;;12.70;99.90;;;;;;5049630;28;20032;-67
2023/07/27 04:51:27;;;;;;;14.02;7.22;;;12.70;99.90;;;;;;5064734;28;20456;-66
2023/07/27 04:53:52;;;;;;;14.80;7.70;;;12.70;99.90;;;;;;5065373;28;20151;-67
2023/07/27 04:56:18;;;;;;;13.57;7.10;;;12.70;99.90;;;;;;5035253;28;20055;-68
2023/07/27 04:58:43;;;;;;;13.38;7.18;;;12.70;99.90;;;;;;5064186;28;20138;-67
2023/07/27 05:01:09;;;;;;;16.27;7.43;;;12.70;99.90;;;;;;5047110;28;20045;-69
2023/07/27 05:03:34;;;;;;;16.00;7.63;;;12.80;99.90;;;;;;5075270;28;20504;-67
2023/07/27 05:06:00;;;;;;;14.73;7.63;;;12.80;99.90;;;;;;5062646;28;20052;-66
2023/07/27 05:08:26;;;;;;;14.25;7.60;;;12.80;99.90;;;;;;5042436;28;20059;-66
2023/07/27 05:10:51;;;;;;;14.52;7.38;;;12.80;99.90;;;;;;5047791;28;20683;-66
2023/07/27 05:13:17;;;;;;;13.82;7.55;;;12.80;99.90;;;;;;5033885;28;20032;-66
2023/07/27 05:15:44;;;;;;;15.65;7.13;;;12.80;99.90;;;;;;5047415;28;20079;-67
2023/07/27 05:18:10;;;;;;;17.73;8.35;;;12.80;99.90;;;;;;5047383;28;20036;-67
2023/07/27 05:20:35;;;;;;;17.02;7.55;;;12.80;99.90;;;;;;5033084;28;20491;-67
2023/07/27 05:23:01;;;;;;;13.40;8.13;;;12.80;99.90;;;;;;5027295;28;20043;-67
2023/07/27 05:25:26;;;;;;;15.13;7.57;;;12.80;99.90;;;;;;5063927;28;20067;-66
2023/07/27 05:27:52;;;;;;;12.35;7.30;;;12.80;99.90;;;;;;5064475;28;20068;-67
2023/07/27 05:30:18;;;;;;;16.17;7.63;;;12.90;99.90;;;;;;5046413;28;20059;-67
2023/07/27 05:32:43;;;;;;;15.90;7.97;;;12.90;99.90;;;;;;5030763;28;20132;-67
2023/07/27 05:35:09;;;;;;;12.35;6.93;;;13.00;99.90;;;;;;5042360;28;20395;-67
2023/07/27 05:37:35;;;;;;;15.32;8.00;;;12.90;99.90;;;;;;5032246;28;20102;-67
2023/07/27 05:40:00;;;;;;;13.07;7.65;;;13.00;99.90;;;;;;5045873;28;20040;-68
2023/07/27 05:42:26;;;;;;;15.82;7.85;;;13.00;99.90;;;;;;5048978;28;20036;-68
2023/07/27 05:44:51;;;;;;;13.27;7.55;;;13.00;99.90;;;;;;5063458;28;20482;-67
2023/07/27 05:47:18;;;;;;;14.60;7.00;;;13.00;99.90;;;;;;5047453;28;20574;-68
2023/07/27 05:49:44;;;;;;;12.23;6.85;;;13.10;99.90;;;;;;5029350;28;20066;-67
2023/07/27 05:52:10;;;;;;;14.13;7.20;;;13.10;99.90;;;;;;5049176;28;20040;-67
2023/07/27 05:54:35;;;;;;;15.82;7.53;;;13.20;99.90;;;;;;5053676;28;20048;-67
2023/07/27 05:57:01;;;;;;;17.13;7.05;;;13.20;99.90;;;;;;5065963;28;20068;-68
2023/07/27 05:59:26;;;;;;;11.13;6.78;;;13.30;99.90;;;;;;5049896;28;20046;-68
2023/07/27 06:01:52;;;;;;;13.75;7.88;;;13.30;99.90;;;;;;5039226;28;20083;-68
2023/07/27 06:04:18;;;;;;;13.73;7.45;;;13.30;99.90;;;;;;5042850;28;20039;-69
2023/07/27 06:06:45;;;;;;;19.52;8.38;;;13.40;99.90;;;;;;5075343;28;20080;-68
2023/07/27 06:09:11;;;;;;;12.25;6.88;;;13.40;99.90;;;;;;5029915;28;20048;-68
2023/07/27 06:11:37;;;;;;;16.83;7.78;;;13.40;99.90;;;;;;5056719;28;20041;-69
2023/07/27 06:14:03;;;;;;;15.20;7.50;;;13.50;99.90;;;;;;5060128;28;20040;-68
2023/07/27 06:16:28;;;;;;;13.23;6.85;;;13.50;99.90;;;;;;5022700;28;20044;-68
2023/07/27 06:18:54;;;;;;;12.38;7.20;;;13.50;99.90;;;;;;5040196;28;20033;-69
2023/07/27 06:21:19;;;;;;;12.80;7.45;;;13.60;99.90;;;;;;5041422;28;20114;-67
2023/07/27 06:23:45;;;;;;;16.52;8.30;;;13.60;99.90;;;;;;5042011;28;20037;-68
2023/07/27 06:26:10;;;;;;;18.52;7.68;;;13.70;99.90;;;;;;5059624;28;20071;-68
2023/07/27 06:28:36;;;;;;;16.40;8.65;;;13.70;99.90;;;;;;5048106;28;20028;-68
2023/07/27 06:31:02;;;;;;;13.85;7.78;;;13.80;99.90;;;;;;5036723;28;20041;-68
2023/07/27 06:33:28;;;;;;;17.92;7.95;;;13.90;99.90;;;;;;5032251;28;20115;-67
2023/07/27 06:35:54;;;;;;;15.32;7.97;;;14.00;99.90;;;;;;5032653;28;20127;-67
2023/07/27 06:38:19;;;;;;;14.48;8.68;;;14.00;99.90;;;;;;5030467;28;20036;-71
2023/07/27 06:40:45;;;;;;;18.00;9.00;;;14.10;99.90;;;;;;5027776;28;20033;-68
2023/07/27 06:43:12;;;;;;;17.88;9.80;;;14.10;99.90;;;;;;5042809;28;20119;-72
2023/07/27 06:45:38;;;;;;;17.40;9.18;;;14.10;99.90;;;;;;5034813;28;20086;-72
2023/07/27 06:48:03;;;;;;;16.80;8.70;;;14.10;99.90;;;;;;5041085;28;20568;-70
2023/07/27 06:50:29;;;;;;;13.43;7.93;;;14.10;99.90;;;;;;5043779;28;20135;-70
2023/07/27 06:52:55;;;;;;;14.65;9.05;;;14.00;99.90;;;;;;5042794;28;20072;-70
2023/07/27 06:55:20;;;;;;;17.17;8.65;;;13.90;99.90;;;;;;5037972;28;20045;-70
2023/07/27 06:57:46;;;;;;;17.05;8.73;;;14.00;99.90;;;;;;5045605;28;20036;-71
2023/07/27 07:00:13;;;;;;;14.95;9.35;;;14.10;99.90;;;;;;5059434;28;20063;-70
2023/07/27 07:02:39;;;;;;;13.57;8.52;;;14.00;99.90;;;;;;5042501;28;20069;-67
2023/07/27 07:05:04;;;;;;;15.20;8.80;;;14.10;99.90;;;;;;5049422;28;20041;-66
2023/07/27 07:07:30;;;;;;;15.35;9.07;;;14.20;99.90;;;;;;5047130;28;20119;-67
2023/07/27 07:09:56;;;;;;;18.13;9.25;;;14.20;99.90;;;;;;5045609;28;20033;-70
2023/07/27 07:12:22;;;;;;;15.45;9.27;;;14.30;99.90;;;;;;5043342;28;20504;-68
2023/07/27 07:14:47;;;;;;;18.02;9.48;;;14.30;99.90;;;;;;5049334;28;20056;-70
2023/07/27 07:17:13;;;;;;;14.65;8.93;;;14.50;99.90;;;;;;5049555;28;20048;-70
2023/07/27 07:19:38;;;;;;;12.25;8.00;;;14.60;99.90;;;;;;5044857;28;20028;-70
2023/07/27 07:22:04;;;;;;;10.98;7.63;;;14.50;99.90;;;;;;5046332;28;20044;-69
2023/07/27 07:24:30;;;;;;;12.70;7.72;;;14.50;99.90;;;;;;5045577;28;20392;-67
2023/07/27 07:26:55;;;;;;;11.90;7.63;;;14.50;99.90;;;;;;5043085;28;20139;-69
2023/07/27 07:29:21;;;;;;;11.95;6.68;;;14.40;99.90;;;;;;5023870;28;20046;-68
2023/07/27 07:31:47;;;;;;;12.18;6.65;;;14.40;99.90;;;;;;5047369;28;20133;-68
2023/07/27 07:34:13;;;;;;;10.13;6.13;;;14.40;99.90;;;;;;5044338;28;20044;-68
2023/07/27 07:36:39;;;;;;;10.30;6.32;;;14.50;99.90;;;;;;5026049;28;20480;-68
2023/07/27 07:39:05;;;;;;;9.23;5.97;;;14.40;99.90;;;;;;5016068;28;20043;-70
2023/07/27 07:41:31;;;;;;;10.65;6.22;;;14.50;99.90;;;;;;5063730;28;20087;-69
2023/07/27 07:43:57;;;;;;;10.82;6.32;;;14.50;99.90;;;;;;5051706;28;20052;-68
2023/07/27 07:46:22;;;;;;;9.50;6.85;;;14.50;99.90;;;;;;5046749;28;20040;-68
2023/07/27 07:48:48;;;;;;;10.48;6.60;;;14.60;99.90;;;;;;5053270;28;20487;-69
2023/07/27 07:51:14;;;;;;;11.20;6.80;;;14.60;99.90;;;;;;5069457;28;20132;-67
2023/07/27 07:53:41;;;;;;;10.05;6.75;;;14.70;99.90;;;;;;5067176;28;20056;-66
2023/07/27 07:56:14;;;;;;;10.65;6.25;;;14.70;99.90;;;;;;5047347;28;20032;-67
2023/07/27 07:58:39;;;;;;;10.02;6.20;;;14.80;99.90;;;;;;5049854;28;20500;-67
2023/07/27 08:01:06;;;;;;;10.30;6.47;;;14.90;99.90;;;;;;5048993;28;20173;-66
2023/07/27 08:03:31;;;;;;;9.32;6.20;;;14.90;99.90;;;;;;5067776;28;20058;-67
2023/07/27 08:05:57;;;;;;;10.13;6.22;;;14.90;99.90;;;;;;5070106;28;20037;-67
2023/07/27 08:08:23;;;;;;;9.88;6.13;;;14.80;99.90;;;;;;5045800;28;20071;-68
2023/07/27 08:10:48;;;;;;;9.27;5.78;;;14.80;99.90;;;;;;5045076;28;20044;-68
2023/07/27 08:13:14;;;;;;;8.95;5.45;;;14.80;99.90;;;;;;5051842;28;20605;-68
2023/07/27 08:15:39;;;;;;;8.23;5.35;;;14.80;99.90;;;;;;5030074;28;20083;-69
2023/07/27 08:18:05;;;;;;;8.57;5.80;;;14.80;99.90;;;;;;5049533;28;20048;-69
2023/07/27 08:20:30;;;;;;;7.93;5.57;;;14.70;99.90;;;;;;5049361;28;20081;-68
2023/07/27 08:22:56;;;;;;;8.85;6.35;;;14.70;99.90;;;;;;5032068;28;20357;-67
2023/07/27 08:25:22;;;;;;;12.15;5.82;;;14.70;99.90;;;;;;5062136;28;20082;-68
2023/07/27 08:27:48;;;;;;;12.10;7.07;;;14.70;99.90;;;;;;5039767;28;20124;-67
2023/07/27 08:30:14;;;;;;;11.15;7.47;;;14.70;99.90;;;;;;5035322;28;20101;-68
2023/07/27 08:32:40;;;;;;;10.88;7.30;;;14.70;99.90;;;;;;5051635;28;20468;-69
2023/07/27 08:35:06;;;;;;;11.55;7.75;;;14.70;99.90;;;;;;5051611;28;20045;-68
2023/07/27 08:37:31;;;;;;;9.60;7.68;;;14.80;99.90;;;;;;5052456;28;20074;-68
2023/07/27 08:39:58;;;;;;;12.32;8.65;;;14.80;99.90;;;;;;5047920;28;20074;-68
2023/07/27 08:42:24;;;;;;;11.55;8.23;;;14.90;99.90;;;;;;5053634;28;20036;-68
2023/07/27 08:44:50;;;;;;;12.88;8.93;;;14.90;99.90;;;;;;5034341;28;20113;-69
2023/07/27 08:47:16;;;;;;;12.00;8.30;;;15.00;99.90;;;;;;5035155;28;20040;-69
2023/07/27 08:49:44;;;;;;;11.18;8.18;;;15.00;99.90;;;;;;5049204;28;20047;-69
2023/07/27 08:52:12;;;;;;;10.00;7.45;;;15.10;99.90;;;;;;5032349;28;20720;-68
2023/07/27 08:54:38;;;;;;;8.65;7.15;;;15.10;99.90;;;;;;5049320;28;20044;-69
2023/07/27 08:57:03;;;;;;;10.50;7.75;;;15.10;99.90;;;;;;5051247;28;20553;-69
2023/07/27 08:59:29;;;;;;;9.25;7.05;;;15.00;99.90;;;;;;5052982;28;20448;-67
2023/07/27 09:01:55;;;;;;;8.60;6.60;;;14.90;99.90;;;;;;5049674;28;20028;-69
2023/07/27 09:04:20;;;;;;;6.93;6.00;;;15.00;99.90;;;;;;5035014;28;20067;-69
2023/07/27 09:06:49;;;;;;;8.63;6.68;;;14.90;99.90;;;;;;5035836;28;20047;-69
2023/07/27 09:09:28;;;;;;;7.80;5.80;;;15.00;99.90;;;;;;5048057;28;20048;-69
2023/07/27 09:11:54;;;;;;;8.27;6.40;;;15.00;99.90;;;;;;5051714;28;20123;-68
2023/07/27 09:14:20;;;;;;;8.90;6.63;;;15.00;99.90;;;;;;5032931;28;20313;-71
2023/07/27 09:16:50;;;;;;;7.32;6.63;;;15.00;99.90;;;;;;5070197;28;20083;-70
2023/07/27 09:19:17;;;;;;;7.15;6.25;;;15.10;99.90;;;;;;5051325;28;20033;-68
2023/07/27 09:21:52;;;;;;;6.75;5.70;;;15.10;99.90;;;;;;5050501;28;20032;-65
2023/07/27 09:24:17;;;;;;;8.65;6.50;;;15.20;99.90;;;;;;5049095;28;20174;-69
2023/07/27 09:26:51;;;;;;;7.05;5.97;;;15.30;99.90;;;;;;5068905;28;20115;-68
2023/07/27 09:29:19;;;;;;;6.68;5.80;;;15.50;99.90;;;;;;5049933;28;20037;-67
2023/07/27 09:31:52;;;;;;;6.63;5.70;;;15.60;99.90;;;;;;5052643;28;20043;-67
2023/07/27 09:34:19;;;;;;;5.97;5.38;;;15.60;99.90;;;;;;5049496;28;20105;-67
2023/07/27 09:36:45;;;;;;;7.80;6.25;;;15.70;99.90;;;;;;5050968;28;20064;-68
2023/07/27 09:39:11;;;;;;;6.80;5.95;;;15.70;99.90;;;;;;5048002;28;20487;-68
2023/07/27 09:41:37;;;;;;;6.60;5.72;;;15.70;99.90;;;;;;5049558;28;20067;-68
2023/07/27 09:44:04;;;;;;;5.82;5.22;;;15.80;99.90;;;;;;5052221;28;20056;-70
2023/07/27 09:46:30;;;;;;;5.90;5.22;;;15.70;99.90;;;;;;5050322;28;20051;-68
2023/07/27 09:48:59;;;;;;;5.75;4.80;;;15.60;99.90;;;;;;5062945;28;20076;-68
2023/07/27 09:51:29;;;;;;;5.38;4.53;;;15.60;99.90;;;;;;5045527;28;20173;-69
2023/07/27 09:53:55;;;;;;;4.85;4.35;;;15.60;99.90;;;;;;5045803;28;20044;-69
2023/07/27 09:56:22;;;;;;;5.25;4.50;;;15.50;99.90;;;;;;5034342;28;20090;-68
2023/07/27 09:58:48;;;;;;;5.70;4.88;;;15.50;99.90;;;;;;5048797;28;20063;-68
2023/07/27 10:01:14;;;;;;;5.47;4.70;;;15.60;99.90;;;;;;5049461;28;20037;-69
2023/07/27 10:03:39;;;;;;;5.28;4.78;;;15.70;99.90;;;;;;5043240;28;20142;-68
2023/07/27 10:06:08;;;;;;;6.22;5.63;;;15.60;99.90;;;;;;5046740;28;20115;-68
2023/07/27 10:08:34;;;;;;;5.55;5.05;;;15.60;99.90;;;;;;5067866;28;20158;-69
2023/07/27 10:11:03;;;;;;;5.65;4.72;;;15.60;99.90;;;;;;5063503;28;20123;-67
2023/07/27 10:13:28;;;;;;;6.07;5.20;;;15.60;99.90;;;;;;5063325;28;20056;-68
2023/07/27 10:15:56;;;;;;;6.60;5.45;;;15.60;99.90;;;;;;5048188;28;20041;-68
2023/07/27 10:18:26;;;;;;;5.72;5.07;;;15.70;99.90;;;;;;5067413;28;20040;-71
2023/07/27 10:20:54;;;;;;;6.43;5.32;;;15.60;99.90;;;;;;5047484;28;20040;-68
2023/07/27 10:23:28;;;;;;;7.10;5.75;;;15.60;99.90;;;;;;5042913;28;20032;-68
2023/07/27 10:25:56;;;;;;;7.57;6.13;;;15.70;99.90;;;;;;5070657;28;20551;-68
2023/07/27 10:28:44;;;;;;;6.25;5.47;;;15.70;99.90;;;;;;5063308;28;20036;-70
2023/07/27 10:31:27;;;;;;;6.13;5.20;;;15.70;99.90;;;;;;5064200;28;20042;-67
2023/07/27 10:33:59;;;;;;;7.35;5.65;;;15.60;99.90;;;;;;5067185;28;20444;-68
2023/07/27 10:36:58;;;;;;;5.97;5.30;;;15.70;99.90;;;;;;5041282;28;20043;-68
2023/07/27 10:39:35;;;;;;;5.78;5.00;;;15.70;99.90;;;;;;5058297;28;20064;-68
2023/07/27 10:42:12;;;;;;;6.40;5.65;;;15.80;99.90;;;;;;5029101;28;20042;-68
2023/07/27 10:44:55;;;;;;;5.93;5.32;;;15.80;99.90;;;;;;5048245;28;20462;-67
2023/07/27 10:47:32;;;;;;;6.53;5.55;;;15.90;99.90;;;;;;5047532;28;20049;-67
2023/07/27 10:49:58;;;;;;;7.65;6.07;;;15.80;99.90;;;;;;5047574;28;20103;-68
2023/07/27 10:52:30;;;;;;;5.97;5.38;;;15.80;99.90;;;;;;5032221;28;20036;-68
2023/07/27 10:54:58;;;;;;;7.43;6.38;;;15.80;99.90;;;;;;5064689;28;20041;-67
2023/07/27 10:57:25;;;;;;;8.00;5.95;;;15.90;99.90;;;;;;5031569;28;20041;-68
2023/07/27 10:59:52;;;;;;;6.53;5.70;;;15.90;99.90;;;;;;5049961;28;20466;-69
2023/07/27 11:02:28;;;;;;;7.90;6.43;;;16.00;99.90;;;;;;5051609;28;20103;-68
2023/07/27 11:04:59;;;;;;;7.20;6.00;;;16.10;99.90;;;;;;5047532;28;20087;-68
2023/07/27 11:07:26;;;;;;;7.45;6.22;;;16.20;99.90;;;;;;5049746;28;20048;-69
2023/07/27 11:09:51;;;;;;;7.15;6.00;;;16.20;99.90;;;;;;5043441;28;20052;-69
2023/07/27 11:12:17;;;;;;;7.13;6.18;;;16.30;99.90;;;;;;5065299;28;20435;-69
2023/07/27 11:14:43;;;;;;;7.45;6.10;;;16.40;99.90;;;;;;5030646;28;20032;-69
2023/07/27 11:17:08;;;;;;;7.30;6.20;;;16.40;99.90;;;;;;5046602;28;20040;-68
2023/07/27 11:19:34;;;;;;;7.72;6.85;;;16.50;99.90;;;;;;5047489;28;20480;-70
2023/07/27 11:22:00;;;;;;;6.75;6.05;;;16.50;99.90;;;;;;5066543;28;20041;-69
2023/07/27 11:24:26;;;;;;;6.95;5.88;;;16.50;99.90;;;;;;5047748;28;20131;-68
2023/07/27 11:26:52;;;;;;;6.15;5.55;;;16.60;99.90;;;;;;5046020;28;20056;-70
2023/07/27 11:29:17;;;;;;;7.28;6.10;;;16.60;99.90;;;;;;5047962;28;20091;-68
2023/07/27 11:31:53;;;;;;;7.32;5.75;;;16.60;99.90;;;;;;5047938;28;20451;-69
2023/07/27 11:34:22;;;;;;;9.60;6.47;;;16.60;99.90;;;;;;5047848;28;20131;-69
2023/07/27 11:36:55;;;;;;;7.47;6.07;;;16.70;99.90;;;;;;5036430;28;20082;-69
2023/07/27 11:39:21;;;;;;;5.90;5.22;;;16.60;99.90;;;;;;5048981;28;20407;-67
2023/07/27 11:41:49;;;;;;;9.88;6.60;;;16.60;99.90;;;;;;5054414;28;20041;-68
2023/07/27 11:44:16;;;;;;;9.13;6.28;;;16.70;99.90;;;;;;5070908;28;20080;-68
2023/07/27 11:46:46;;;;;;;7.93;6.63;;;16.90;99.90;;;;;;5070359;28;20511;-70
2023/07/27 11:49:15;;;;;;;9.45;5.93;;;17.00;99.90;;;;;;5072347;28;20041;-70
2023/07/27 11:51:44;;;;;;;7.93;5.72;;;17.00;99.90;;;;;;5052918;28;20887;-68
2023/07/27 11:54:20;;;;;;;7.00;5.07;;;17.00;99.90;;;;;;5033537;28;20479;-70
2023/07/27 11:56:49;;;;;;;6.63;4.80;;;16.90;99.90;;;;;;5053517;28;20037;-69
2023/07/27 11:59:15;;;;;;;5.40;4.45;;;17.10;99.90;;;;;;5052447;28;20047;-70
2023/07/27 12:01:41;;;;;;;6.43;4.53;;;17.10;99.90;;;;;;5052515;28;20123;-69
2023/07/27 12:04:07;;;;;;;6.40;4.70;;;17.20;99.90;;;;;;5050785;28;20094;-69
2023/07/27 12:06:32;;;;;;;5.18;4.10;;;17.30;99.90;;;;;;5070846;28;20124;-68
2023/07/27 12:09:00;;;;;;;5.78;4.75;;;17.20;99.90;;;;;;5067388;28;20151;-70
2023/07/27 12:11:26;;;;;;;6.75;4.70;;;17.40;99.90;;;;;;5032660;28;20066;-69
2023/07/27 12:13:52;;;;;;;5.88;4.25;;;17.40;99.90;;;;;;5051733;28;20141;-69
2023/07/27 12:16:18;;;;;;;5.82;4.25;;;17.50;99.90;;;;;;5046048;28;20090;-69
2023/07/27 12:18:45;;;;;;;4.72;3.70;;;17.50;99.90;;;;;;5033876;28;20053;-68
2023/07/27 12:21:11;;;;;;;4.47;3.65;;;17.50;99.90;;;;;;5052609;28;20112;-69
2023/07/27 12:23:37;;;;;;;4.22;3.72;;;17.50;99.90;;;;;;5045665;28;20051;-69
2023/07/27 12:26:03;;;;;;;5.20;3.60;;;17.50;99.90;;;;;;5069400;28;20040;-70
2023/07/27 12:28:31;;;;;;;5.07;3.70;;;17.40;99.90;;;;;;5065016;28;20047;-70
2023/07/27 12:30:56;;;;;;;5.50;3.50;;;17.50;99.90;;;;;;5049924;28;20090;-69
2023/07/27 12:33:25;;;;;;;4.88;3.72;;;17.40;99.90;;;;;;5047481;28;20044;-69
2023/07/27 12:35:52;;;;;;;6.95;4.28;;;17.50;99.90;;;;;;5033654;28;20032;-70
2023/07/27 12:38:18;;;;;;;6.60;3.95;;;17.70;99.90;;;;;;5047949;28;20791;-69
2023/07/27 12:40:44;;;;;;;7.35;4.03;;;17.80;99.90;;;;;;5048623;28;20075;-70